Time;durP1;ratioP1;P1;durP2;ratioP2;P2;SDS_P1;SDS_P2;PMS_P1;PMS_P2;Temp;Humidity;BMP_temperature;BMP_pressure;BME280_temperature;BME280_humidity;BME280_pressure;Samples;Min_cycle;Max_cycle;Signal;HPM_P1;HPM_P2
2021/12/30 00:01:39;;;;;;;26.60;8.80;;;9.40;99.90;;;;;;4960904;28;89827;-43
2021/12/30 00:04:05;;;;;;;27.20;8.40;;;9.40;99.90;;;;;;4961002;28;89666;-43
2021/12/30 00:06:38;;;;;;;28.13;8.77;;;9.40;99.90;;;;;;4961481;28;89025;-45
2021/12/30 00:09:05;;;;;;;29.83;9.00;;;9.40;99.90;;;;;;4961058;28;90637;-38
2021/12/30 00:11:30;;;;;;;35.47;9.38;;;9.30;99.90;;;;;;4961147;28;89683;-43
2021/12/30 00:13:56;;;;;;;35.03;9.90;;;9.30;99.90;;;;;;4962404;28;89477;-39
2021/12/30 00:16:22;;;;;;;36.78;10.80;;;9.30;99.90;;;;;;4961148;28;89911;-41
2021/12/30 00:18:49;;;;;;;31.23;7.75;;;9.30;99.90;;;;;;4961543;28;90583;-40
2021/12/30 00:21:15;;;;;;;28.95;9.07;;;9.30;99.90;;;;;;4961823;28;89716;-40
2021/12/30 00:23:42;;;;;;;28.52;8.27;;;9.20;99.90;;;;;;4960897;28;89692;-44
2021/12/30 00:26:08;;;;;;;27.52;9.27;;;9.20;99.90;;;;;;4961991;28;90023;-43
2021/12/30 00:28:34;;;;;;;30.15;9.23;;;9.20;99.90;;;;;;4961069;28;90759;-40
2021/12/30 00:30:59;;;;;;;33.20;10.15;;;9.20;99.90;;;;;;4961521;28;89719;-40
2021/12/30 00:33:27;;;;;;;42.80;8.68;;;9.20;99.90;;;;;;4960449;28;89707;-40
2021/12/30 00:35:53;;;;;;;43.43;10.73;;;9.20;99.90;;;;;;4961455;28;89844;-41
2021/12/30 00:38:19;;;;;;;34.45;9.05;;;9.10;99.90;;;;;;4961110;28;90476;-42
2021/12/30 00:40:46;;;;;;;27.58;8.20;;;9.10;99.90;;;;;;4961411;28;89490;-38
2021/12/30 00:43:11;;;;;;;35.65;9.48;;;9.10;99.90;;;;;;4961180;28;92191;-40
2021/12/30 00:45:38;;;;;;;34.58;9.95;;;9.10;99.90;;;;;;4961345;28;89849;-39
2021/12/30 00:48:05;;;;;;;28.77;9.07;;;9.10;99.90;;;;;;4961521;28;90483;-39
2021/12/30 00:50:32;;;;;;;29.77;8.48;;;9.10;99.90;;;;;;4961103;28;90200;-46
2021/12/30 00:52:59;;;;;;;35.30;9.13;;;9.00;99.90;;;;;;4961020;28;88606;-44
2021/12/30 00:55:26;;;;;;;39.22;8.93;;;9.00;99.90;;;;;;4961440;28;90221;-39
2021/12/30 00:57:51;;;;;;;40.00;8.88;;;9.00;99.90;;;;;;4961780;28;90395;-39
2021/12/30 01:00:19;;;;;;;28.50;9.57;;;9.00;99.90;;;;;;4960599;28;89579;-47
2021/12/30 01:02:44;;;;;;;36.60;9.05;;;8.90;99.90;;;;;;4961619;28;89156;-42
2021/12/30 01:05:10;;;;;;;33.42;9.27;;;9.00;99.90;;;;;;4960769;28;89396;-45
2021/12/30 01:07:36;;;;;;;36.63;8.50;;;8.90;99.90;;;;;;4960717;28;89386;-46
2021/12/30 01:10:05;;;;;;;37.88;9.30;;;8.90;99.90;;;;;;4961092;28;89825;-45
2021/12/30 01:12:30;;;;;;;31.60;10.25;;;8.90;99.90;;;;;;4960237;28;91559;-43
2021/12/30 01:14:56;;;;;;;38.85;10.40;;;8.90;99.90;;;;;;4960364;28;89218;-44
2021/12/30 01:17:37;;;;;;;37.42;10.10;;;8.80;99.90;;;;;;4960326;28;90565;-42
2021/12/30 01:20:04;;;;;;;32.42;9.07;;;8.80;99.90;;;;;;4960189;28;88623;-41
2021/12/30 01:22:29;;;;;;;32.10;8.95;;;8.80;99.90;;;;;;4961427;28;90670;-38
2021/12/30 01:27:26;;;;;;;35.70;9.55;;;8.70;99.90;;;;;;4976143;28;88913;-41
2021/12/30 01:29:52;;;;;;;37.15;8.70;;;8.70;99.90;;;;;;4979789;28;90139;-42
2021/12/30 01:32:18;;;;;;;43.55;8.98;;;8.70;99.90;;;;;;4980320;28;90563;-40
2021/12/30 01:34:44;;;;;;;25.65;8.50;;;8.70;99.90;;;;;;4980278;28;88922;-38
2021/12/30 01:37:12;;;;;;;23.48;8.07;;;8.70;99.90;;;;;;4980874;28;90933;-41
2021/12/30 01:39:39;;;;;;;30.17;9.10;;;8.70;99.90;;;;;;4979799;28;89513;-41
2021/12/30 01:42:08;;;;;;;31.42;8.90;;;8.60;99.90;;;;;;4979242;28;89445;-38
2021/12/30 01:44:34;;;;;;;;;;;8.60;99.90;;;;;;4980842;28;89825;-43
2021/12/30 01:47:01;;;;;;;27.15;8.13;;;8.60;99.90;;;;;;4983223;28;89730;-40
2021/12/30 01:49:27;;;;;;;29.25;8.27;;;8.60;99.90;;;;;;4980016;28;90822;-40
2021/12/30 01:51:54;;;;;;;32.92;9.45;;;8.60;99.90;;;;;;4979685;28;89632;-37
2021/12/30 01:54:21;;;;;;;40.42;9.50;;;8.60;99.90;;;;;;4979923;28;89931;-47
2021/12/30 01:56:50;;;;;;;42.00;9.57;;;8.60;99.90;;;;;;4980952;28;90273;-40
2021/12/30 01:59:15;;;;;;;20.75;7.10;;;8.60;99.90;;;;;;4980490;28;89104;-44
2021/12/30 02:01:41;;;;;;;34.92;8.93;;;8.60;99.90;;;;;;4979122;28;89042;-40
2021/12/30 02:04:07;;;;;;;38.85;9.93;;;8.60;99.90;;;;;;4979557;28;89491;-43
2021/12/30 02:06:33;;;;;;;27.15;8.70;;;8.50;99.90;;;;;;4978140;28;90424;-45
2021/12/30 02:09:00;;;;;;;26.70;7.75;;;8.50;99.90;;;;;;4979489;28;89972;-41
2021/12/30 02:11:27;;;;;;;27.27;9.18;;;8.50;99.90;;;;;;4979100;28;89404;-45
2021/12/30 02:13:53;;;;;;;34.90;9.88;;;8.50;99.90;;;;;;4978369;28;88005;-42
2021/12/30 02:16:21;;;;;;;32.97;9.27;;;8.50;99.90;;;;;;4979361;28;90667;-45
2021/12/30 02:18:47;;;;;;;28.35;9.80;;;8.50;99.90;;;;;;4978099;28;91242;-41
2021/12/30 02:21:13;;;;;;;43.58;10.27;;;8.50;99.90;;;;;;4960491;28;91824;-41
2021/12/30 02:23:39;;;;;;;30.33;9.75;;;8.50;99.90;;;;;;4978401;28;87901;-35
2021/12/30 02:26:14;;;;;;;43.17;10.85;;;8.50;99.90;;;;;;4978243;28;90259;-33
2021/12/30 02:28:40;;;;;;;34.40;10.35;;;8.50;99.90;;;;;;4977609;28;89368;-39
2021/12/30 02:31:19;;;;;;;39.80;10.77;;;8.50;99.90;;;;;;4978055;28;89632;-41
2021/12/30 02:33:46;;;;;;;39.70;10.82;;;8.50;99.90;;;;;;4979753;28;88661;-39
2021/12/30 02:36:13;;;;;;;36.40;11.25;;;8.60;99.90;;;;;;4977675;28;89372;-38
2021/12/30 02:38:44;;;;;;;40.83;12.00;;;8.60;99.90;;;;;;4976986;28;90075;-43
2021/12/30 02:41:14;;;;;;;46.78;12.23;;;8.70;99.90;;;;;;4961307;28;89894;-37
2021/12/30 02:43:41;;;;;;;37.80;13.73;;;8.70;99.90;;;;;;4977424;28;89407;-42
2021/12/30 02:46:07;;;;;;;37.72;14.38;;;8.80;99.90;;;;;;4977288;28;90219;-37
2021/12/30 02:48:35;;;;;;;46.70;15.48;;;8.90;99.90;;;;;;4977663;28;89704;-39
2021/12/30 02:51:04;;;;;;;41.72;15.38;;;9.00;99.90;;;;;;4979561;28;89679;-38
2021/12/30 02:53:30;;;;;;;46.75;15.68;;;9.00;99.90;;;;;;4982363;28;88154;-38
2021/12/30 02:55:56;;;;;;;56.55;16.10;;;9.10;99.90;;;;;;4982545;28;90235;-38
2021/12/30 02:58:24;;;;;;;38.75;15.93;;;9.10;99.90;;;;;;4982429;28;89745;-44
2021/12/30 03:00:57;;;;;;;47.30;17.43;;;9.10;99.90;;;;;;4982654;28;89108;-42
2021/12/30 03:03:24;;;;;;;41.25;16.05;;;9.20;99.90;;;;;;4982183;28;89479;-41
2021/12/30 03:05:56;;;;;;;48.75;17.35;;;9.20;99.90;;;;;;4982410;28;90416;-38
2021/12/30 03:08:21;;;;;;;44.45;17.30;;;9.30;99.90;;;;;;4981658;28;90890;-46
2021/12/30 03:10:47;;;;;;;44.83;18.90;;;9.20;99.90;;;;;;4981891;28;90515;-40
2021/12/30 03:13:15;;;;;;;50.63;17.90;;;9.30;99.90;;;;;;4982160;28;89547;-45
2021/12/30 03:15:41;;;;;;;43.97;17.50;;;9.30;99.90;;;;;;4981231;28;91360;-43
2021/12/30 03:18:07;;;;;;;52.83;17.42;;;9.30;99.90;;;;;;4982663;28;91469;-42
2021/12/30 03:20:36;;;;;;;57.80;19.23;;;9.40;99.90;;;;;;4963521;28;89090;-38
2021/12/30 03:23:03;;;;;;;48.75;18.08;;;9.40;99.90;;;;;;4982078;28;89665;-44
2021/12/30 03:25:29;;;;;;;46.10;18.40;;;9.40;99.90;;;;;;4981054;28;89895;-46
2021/12/30 03:27:55;;;;;;;46.03;18.58;;;9.40;99.90;;;;;;4981915;28;89715;-41
2021/12/30 03:30:21;;;;;;;47.85;18.67;;;9.50;99.90;;;;;;4981922;28;90020;-38
2021/12/30 03:32:47;;;;;;;51.83;19.23;;;9.50;99.90;;;;;;4981587;28;88821;-40
2021/12/30 03:35:12;;;;;;;54.38;18.55;;;9.50;99.90;;;;;;4980561;28;90172;-36
2021/12/30 03:37:39;;;;;;;42.67;19.17;;;9.60;99.90;;;;;;4981581;28;89587;-45
2021/12/30 03:40:09;;;;;;;43.17;18.55;;;9.60;99.90;;;;;;4981181;28;89110;-40
2021/12/30 03:42:35;;;;;;;45.47;16.80;;;9.70;99.90;;;;;;4981527;28;89121;-39
2021/12/30 03:45:02;;;;;;;49.75;19.25;;;9.70;99.90;;;;;;4980816;28;90247;-43
2021/12/30 03:47:28;;;;;;;42.28;17.42;;;9.70;99.90;;;;;;4981892;28;89839;-43
2021/12/30 03:49:54;;;;;;;44.53;17.15;;;9.70;99.90;;;;;;4981396;28;89934;-44
2021/12/30 03:52:26;;;;;;;48.85;18.20;;;9.70;99.90;;;;;;4981241;28;88983;-41
2021/12/30 03:54:51;;;;;;;44.13;18.00;;;9.70;99.90;;;;;;4981421;28;90468;-42
2021/12/30 03:57:17;;;;;;;56.35;17.60;;;9.80;99.90;;;;;;4981178;28;90582;-38
2021/12/30 03:59:43;;;;;;;52.60;18.52;;;9.90;99.90;;;;;;4981222;28;90786;-43
2021/12/30 04:02:08;;;;;;;49.47;19.00;;;9.90;99.90;;;;;;4982159;28;90039;-35
2021/12/30 04:04:34;;;;;;;40.05;17.45;;;9.90;99.90;;;;;;4980329;28;90140;-40
2021/12/30 04:07:00;;;;;;;41.65;18.83;;;9.90;99.90;;;;;;4982121;28;89439;-40
2021/12/30 04:09:26;;;;;;;52.65;20.27;;;9.90;99.90;;;;;;4983584;28;90021;-42
2021/12/30 04:11:52;;;;;;;50.38;18.73;;;10.00;99.90;;;;;;4982278;28;88239;-42
2021/12/30 04:14:18;;;;;;;48.92;18.50;;;10.00;99.90;;;;;;4981180;28;90312;-44
2021/12/30 04:16:43;;;;;;;47.95;19.52;;;10.00;99.90;;;;;;4981181;28;90153;-37
2021/12/30 04:19:09;;;;;;;39.10;16.38;;;10.00;99.90;;;;;;4980735;28;90090;-41
2021/12/30 04:21:34;;;;;;;44.90;16.95;;;10.00;99.90;;;;;;4980950;28;89938;-42
2021/12/30 04:24:01;;;;;;;52.80;19.65;;;10.00;99.90;;;;;;4981221;28;90191;-39
2021/12/30 04:26:27;;;;;;;39.22;16.83;;;10.00;99.90;;;;;;4980738;28;90303;-40
2021/12/30 04:28:53;;;;;;;39.47;17.73;;;10.00;99.90;;;;;;4981529;28;88792;-36
2021/12/30 04:31:18;;;;;;;48.35;19.75;;;10.00;99.90;;;;;;4980342;28;90189;-40
2021/12/30 04:33:44;;;;;;;45.15;16.80;;;10.00;99.90;;;;;;4980441;28;90000;-38
2021/12/30 04:36:10;;;;;;;41.25;16.33;;;10.00;99.90;;;;;;4980646;28;89654;-43
2021/12/30 04:38:36;;;;;;;50.08;17.70;;;10.10;99.90;;;;;;4980769;28;89743;-41
2021/12/30 04:41:03;;;;;;;35.88;15.82;;;10.00;99.90;;;;;;4981256;28;89306;-40
2021/12/30 04:43:29;;;;;;;46.58;15.82;;;10.10;99.90;;;;;;4980639;28;90555;-41
2021/12/30 04:45:55;;;;;;;44.97;16.95;;;10.00;99.90;;;;;;4980332;28;90545;-46
2021/12/30 04:48:22;;;;;;;46.30;16.38;;;10.10;99.90;;;;;;4981156;28;90373;-42
2021/12/30 04:50:47;;;;;;;38.40;15.88;;;10.10;99.90;;;;;;4980041;28;89057;-42
2021/12/30 04:53:15;;;;;;;49.00;16.33;;;10.10;99.90;;;;;;4980736;28;90371;-43
2021/12/30 04:55:42;;;;;;;35.30;16.25;;;10.10;99.90;;;;;;4976655;28;89716;-38
2021/12/30 04:58:07;;;;;;;49.95;14.77;;;10.10;99.90;;;;;;4967769;28;89483;-43
2021/12/30 05:00:34;;;;;;;49.83;15.80;;;10.10;99.90;;;;;;4969885;28;88203;-41
2021/12/30 05:03:11;;;;;;;49.67;17.48;;;10.20;99.90;;;;;;4968723;28;90208;-41
2021/12/30 05:05:40;;;;;;;47.20;16.92;;;10.20;99.90;;;;;;4969039;28;89894;-40
2021/12/30 05:08:06;;;;;;;;;;;10.20;99.90;;;;;;4969393;28;89715;-39
2021/12/30 05:10:31;;;;;;;52.55;17.38;;;10.20;99.90;;;;;;4968476;28;88532;-40
2021/12/30 05:12:57;;;;;;;50.50;13.68;;;10.20;99.90;;;;;;4968891;28;91637;-40
2021/12/30 05:15:23;;;;;;;44.28;15.77;;;10.30;99.90;;;;;;4968594;28;89179;-42
2021/12/30 05:17:48;;;;;;;40.05;15.07;;;10.30;99.90;;;;;;4967990;28;89752;-39
2021/12/30 05:20:14;;;;;;;56.15;16.70;;;10.40;99.90;;;;;;4967098;28;88128;-44
2021/12/30 05:22:42;;;;;;;52.35;15.25;;;10.30;99.90;;;;;;4968904;28;90246;-39
2021/12/30 05:25:11;;;;;;;55.83;15.37;;;10.40;99.90;;;;;;4967589;28;90429;-40
2021/12/30 05:27:37;;;;;;;50.15;15.02;;;10.40;99.90;;;;;;4967735;28;89659;-42
2021/12/30 05:30:05;;;;;;;38.47;14.50;;;10.40;99.90;;;;;;4968239;28;87817;-39
2021/12/30 05:32:31;;;;;;;52.97;16.63;;;10.40;99.90;;;;;;4967360;28;90320;-44
2021/12/30 05:34:56;;;;;;;44.15;16.70;;;10.40;99.90;;;;;;4966448;28;90620;-40
2021/12/30 05:37:22;;;;;;;61.90;17.20;;;10.40;99.90;;;;;;4968631;28;89177;-43
2021/12/30 05:39:47;;;;;;;43.42;14.50;;;10.40;99.90;;;;;;4967965;28;90033;-38
2021/12/30 05:42:13;;;;;;;38.63;16.42;;;10.40;99.90;;;;;;4967076;28;90287;-41
2021/12/30 05:44:40;;;;;;;33.85;14.52;;;10.40;99.90;;;;;;4968822;28;89772;-43
2021/12/30 05:47:06;;;;;;;37.60;13.77;;;10.40;99.90;;;;;;4967168;28;91349;-43
2021/12/30 05:49:32;;;;;;;21.20;11.98;;;10.40;99.90;;;;;;4967195;28;88761;-42
2021/12/30 05:51:58;;;;;;;25.88;14.43;;;10.40;99.90;;;;;;4969768;28;90609;-41
2021/12/30 05:54:24;;;;;;;23.38;12.90;;;10.50;99.90;;;;;;4968619;28;89656;-37
2021/12/30 05:56:50;;;;;;;25.85;12.77;;;10.40;99.90;;;;;;4970110;28;90072;-47
2021/12/30 05:59:15;;;;;;;22.05;13.02;;;10.40;99.90;;;;;;4969234;28;89574;-38
2021/12/30 06:01:41;;;;;;;16.98;11.10;;;10.50;99.90;;;;;;4966448;28;90033;-38
2021/12/30 06:04:07;;;;;;;19.67;10.88;;;10.40;99.90;;;;;;4967922;28;90990;-39
2021/12/30 06:06:32;;;;;;;13.68;9.75;;;10.40;99.90;;;;;;4967417;28;88956;-40
2021/12/30 06:08:58;;;;;;;16.83;10.70;;;10.50;99.90;;;;;;4969872;28;88656;-40
2021/12/30 06:11:23;;;;;;;18.05;9.40;;;10.50;99.90;;;;;;4966265;28;96199;-39
2021/12/30 06:13:49;;;;;;;16.77;11.13;;;10.50;99.90;;;;;;4968018;28;89709;-39
2021/12/30 06:16:15;;;;;;;26.15;11.75;;;10.50;99.90;;;;;;4969350;28;90259;-38
2021/12/30 06:18:40;;;;;;;19.15;11.75;;;10.50;99.90;;;;;;4967759;28;88228;-44
2021/12/30 06:21:06;;;;;;;19.35;11.30;;;10.50;99.90;;;;;;4967448;28;90532;-42
2021/12/30 06:23:31;;;;;;;24.55;12.68;;;10.50;99.90;;;;;;4965767;28;90418;-42
2021/12/30 06:25:57;;;;;;;21.55;12.82;;;10.60;99.90;;;;;;4968467;28;89294;-41
2021/12/30 06:28:23;;;;;;;28.90;14.15;;;10.60;99.90;;;;;;4970193;28;88406;-41
2021/12/30 06:30:48;;;;;;;23.20;12.77;;;10.70;99.90;;;;;;4971017;28;90232;-45
2021/12/30 06:33:14;;;;;;;20.90;13.40;;;10.70;99.90;;;;;;4972225;28;89683;-45
2021/12/30 06:35:39;;;;;;;27.08;14.90;;;10.70;99.90;;;;;;4970420;28;89373;-44
2021/12/30 06:38:05;;;;;;;25.52;14.77;;;10.70;99.90;;;;;;4969761;28;87933;-42
2021/12/30 06:40:31;;;;;;;31.05;16.63;;;10.80;99.90;;;;;;4970862;28;90430;-45
2021/12/30 06:42:57;;;;;;;33.80;15.68;;;10.80;99.90;;;;;;4971397;28;89759;-47
2021/12/30 06:45:23;;;;;;;27.65;16.52;;;10.90;99.90;;;;;;4968956;28;90038;-43
2021/12/30 06:47:48;;;;;;;33.03;17.75;;;10.90;99.90;;;;;;4971263;28;88792;-45
2021/12/30 06:50:16;;;;;;;39.60;16.88;;;10.90;99.90;;;;;;4970113;28;90195;-42
2021/12/30 06:52:46;;;;;;;28.98;16.73;;;10.90;99.90;;;;;;4969485;28;91106;-43
2021/12/30 06:55:12;;;;;;;34.55;16.65;;;11.00;99.90;;;;;;4970773;28;88590;-40
2021/12/30 06:57:39;;;;;;;40.55;17.25;;;11.00;99.90;;;;;;4971797;28;88764;-41
2021/12/30 07:00:08;;;;;;;38.10;18.27;;;11.00;99.90;;;;;;4965004;28;90198;-39
2021/12/30 07:02:35;;;;;;;41.63;19.45;;;11.00;99.90;;;;;;4962377;28;90744;-41
2021/12/30 07:05:01;;;;;;;37.08;19.48;;;11.10;99.90;;;;;;4966505;28;90025;-42
2021/12/30 07:07:26;;;;;;;35.80;19.15;;;11.10;99.90;;;;;;4982113;28;88895;-46
2021/12/30 07:09:52;;;;;;;26.42;16.40;;;11.10;99.90;;;;;;4982558;28;92979;-37
2021/12/30 07:12:18;;;;;;;33.00;17.65;;;11.10;99.90;;;;;;4981296;28;90888;-40
2021/12/30 07:14:43;;;;;;;29.65;16.77;;;11.20;99.90;;;;;;4969288;28;91347;-43
2021/12/30 07:17:09;;;;;;;26.70;15.45;;;11.20;99.90;;;;;;4960972;28;89008;-43
2021/12/30 07:19:35;;;;;;;29.30;15.50;;;11.20;99.90;;;;;;4957400;28;90141;-41
2021/12/30 07:22:00;;;;;;;23.77;14.45;;;11.20;99.90;;;;;;4977309;28;90120;-41
2021/12/30 07:24:26;;;;;;;25.23;13.75;;;11.20;99.90;;;;;;4973114;28;89696;-44
2021/12/30 07:26:52;;;;;;;25.75;15.80;;;11.30;99.90;;;;;;4959494;28;88536;-43
2021/12/30 07:29:18;;;;;;;26.25;14.00;;;11.30;99.90;;;;;;4957389;28;89428;-43
2021/12/30 07:31:44;;;;;;;22.75;13.15;;;11.30;99.90;;;;;;4962937;28;89445;-39
2021/12/30 07:34:10;;;;;;;19.23;11.85;;;11.30;99.90;;;;;;4976346;28;90689;-39
2021/12/30 07:36:35;;;;;;;14.23;11.35;;;11.40;99.90;;;;;;4971099;28;89620;-39
2021/12/30 07:39:02;;;;;;;16.58;11.65;;;11.40;99.90;;;;;;4970182;28;90327;-44
2021/12/30 07:41:27;;;;;;;16.40;12.90;;;11.40;99.90;;;;;;4976290;28;89803;-41
2021/12/30 07:43:53;;;;;;;15.02;11.30;;;11.40;99.90;;;;;;4974332;28;90741;-46
2021/12/30 07:46:19;;;;;;;13.98;10.73;;;11.40;99.90;;;;;;4972225;28;89124;-43
2021/12/30 08:04:34;;;;;;;11.68;9.52;;;11.60;99.90;;;;;;5007857;22;87561;-42
2021/12/30 08:58:50;;;;;;;4.70;4.15;;;12.00;99.90;;;;;;4951115;28;89205;-43
2021/12/30 10:29:53;;;;;;;16.17;9.43;;;12.50;99.90;;;;;;4961785;28;89413;-39
2021/12/30 10:48:40;;;;;;;11.65;8.75;;;12.60;99.90;;;;;;5010522;28;89268;-42
2021/12/30 10:51:11;;;;;;;9.90;7.75;;;12.60;99.90;;;;;;5029718;28;88516;-86
2021/12/30 10:53:37;;;;;;;10.02;8.55;;;12.70;99.90;;;;;;5001379;28;90054;-87
2021/12/30 10:56:44;;;;;;;15.18;8.02;;;12.60;99.90;;;;;;5030340;28;89986;-88
2021/12/30 10:59:22;;;;;;;16.40;7.75;;;12.70;99.90;;;;;;4972583;28;91472;-88
2021/12/30 11:01:52;;;;;;;;;;;12.70;99.90;;;;;;5014450;28;87909;-88
2021/12/30 11:04:20;;;;;;;8.75;7.50;;;12.70;99.90;;;;;;5030259;27;91280;-89
2021/12/30 11:06:46;;;;;;;12.10;8.00;;;12.70;99.90;;;;;;5017014;22;90434;-34
2021/12/30 11:09:20;;;;;;;13.80;7.22;;;12.70;99.90;;;;;;4987040;28;89790;-33
2021/12/30 11:11:56;;;;;;;20.63;7.43;;;12.70;99.90;;;;;;4984543;28;88594;-34
2021/12/30 11:14:29;;;;;;;8.07;6.05;;;12.70;99.90;;;;;;4941483;28;90796;-35
2021/12/30 11:17:07;;;;;;;7.38;4.97;;;12.70;99.90;;;;;;4994554;28;88551;-39
2021/12/30 11:19:40;;;;;;;10.52;6.45;;;12.70;99.90;;;;;;4991314;28;88477;-40
2021/12/30 11:22:12;;;;;;;9.18;7.70;;;12.80;99.90;;;;;;4991350;28;89533;-43
2021/12/30 11:24:39;;;;;;;13.65;8.13;;;12.80;99.90;;;;;;4992022;28;90840;-43
2021/12/30 11:27:08;;;;;;;14.97;7.73;;;12.70;99.90;;;;;;4995323;28;89489;-39
2021/12/30 11:29:35;;;;;;;18.17;6.05;;;12.80;99.90;;;;;;4994993;28;88092;-40
2021/12/30 11:32:01;;;;;;;17.75;8.45;;;12.80;99.90;;;;;;4996199;28;88271;-45
2021/12/30 11:34:29;;;;;;;14.02;8.63;;;12.80;99.90;;;;;;4996027;28;91074;-41
2021/12/30 11:36:54;;;;;;;13.82;7.60;;;12.70;99.90;;;;;;4995495;28;90551;-43
2021/12/30 11:39:22;;;;;;;15.38;8.48;;;12.80;99.90;;;;;;4996660;28;90231;-41
2021/12/30 11:42:02;;;;;;;16.55;9.05;;;12.80;99.90;;;;;;4996716;28;87683;-39
2021/12/30 11:44:45;;;;;;;17.77;8.13;;;12.70;99.90;;;;;;4996597;28;90803;-45
2021/12/30 11:47:32;;;;;;;18.75;7.60;;;12.70;99.90;;;;;;4996861;28;90448;-46
2021/12/30 11:50:02;;;;;;;12.70;7.13;;;12.70;99.90;;;;;;4996986;28;88577;-46
2021/12/30 11:52:52;;;;;;;27.48;8.65;;;12.70;99.90;;;;;;4996567;28;87889;-41
2021/12/30 11:55:48;;;;;;;18.90;8.25;;;12.70;99.90;;;;;;5000570;28;89944;-43
2021/12/30 12:00:57;;;;;;;29.08;8.18;;;12.70;99.90;;;;;;4995848;28;89908;-43
2021/12/30 12:04:05;;;;;;;17.75;7.25;;;12.70;99.90;;;;;;4994111;28;88999;-40
2021/12/30 12:06:32;;;;;;;17.83;8.10;;;12.70;99.90;;;;;;4927239;28;88823;-43
2021/12/30 12:09:22;;;;;;;11.93;6.97;;;12.70;99.90;;;;;;4945670;28;90204;-44
2021/12/30 12:12:03;;;;;;;24.15;8.23;;;12.80;99.90;;;;;;4956041;28;89591;-42
2021/12/30 12:14:50;;;;;;;29.80;8.15;;;12.70;99.90;;;;;;4955151;28;88818;-41
2021/12/30 12:17:37;;;;;;;19.23;7.83;;;12.80;99.90;;;;;;4953581;28;90160;-42
2021/12/30 12:20:17;;;;;;;17.33;7.93;;;12.80;99.90;;;;;;4971390;28;89868;-40
2021/12/30 12:22:42;;;;;;;19.55;7.72;;;12.70;99.90;;;;;;4973132;28;88093;-45
2021/12/30 12:25:20;;;;;;;21.10;13.85;;;12.70;99.90;;;;;;4972235;28;88712;-43
2021/12/30 12:27:51;;;;;;;18.05;7.50;;;12.80;99.90;;;;;;4970116;28;90317;-46
2021/12/30 12:30:29;;;;;;;20.45;7.88;;;12.80;99.90;;;;;;4973566;28;90645;-41
2021/12/30 12:32:55;;;;;;;20.05;8.68;;;12.70;99.90;;;;;;4971731;28;90786;-39
2021/12/30 12:35:21;;;;;;;14.52;7.75;;;12.70;99.90;;;;;;4973824;28;87719;-43
2021/12/30 12:37:49;;;;;;;21.05;6.95;;;12.80;99.90;;;;;;4973418;28;90227;-40
2021/12/30 12:40:27;;;;;;;23.20;8.48;;;12.80;99.90;;;;;;4973563;28;89650;-41
2021/12/30 12:42:59;;;;;;;24.35;8.73;;;12.80;99.90;;;;;;4973256;28;89449;-41
2021/12/30 12:45:40;;;;;;;26.75;7.00;;;12.70;99.90;;;;;;4973834;28;87717;-41
2021/12/30 12:48:20;;;;;;;20.33;8.57;;;12.80;99.90;;;;;;4973433;28;90705;-44
2021/12/30 12:50:57;;;;;;;21.27;8.05;;;12.70;99.90;;;;;;4973180;28;89825;-41
2021/12/30 12:53:28;;;;;;;22.98;8.80;;;12.70;99.90;;;;;;4973435;28;89316;-42
2021/12/30 12:55:57;;;;;;;29.80;8.40;;;12.80;99.90;;;;;;4972495;28;88370;-45
2021/12/30 12:58:26;;;;;;;15.43;7.43;;;12.80;99.90;;;;;;4973071;28;89256;-41
2021/12/30 13:00:56;;;;;;;21.13;7.95;;;12.80;99.90;;;;;;4973195;28;90562;-43
2021/12/30 13:03:23;;;;;;;28.77;9.30;;;12.70;99.90;;;;;;4973333;28;89350;-41
2021/12/30 13:06:06;;;;;;;18.15;8.70;;;12.70;99.90;;;;;;4973024;28;87853;-44
2021/12/30 13:08:42;;;;;;;25.08;8.10;;;12.70;99.90;;;;;;4992133;28;89878;-42
2021/12/30 13:11:10;;;;;;;19.65;7.05;;;12.70;99.90;;;;;;4993390;28;89656;-44
2021/12/30 13:13:38;;;;;;;21.20;8.65;;;12.70;99.90;;;;;;4992627;28;89518;-41
2021/12/30 13:16:25;;;;;;;26.55;8.45;;;12.70;99.90;;;;;;4977652;28;88130;-44
2021/12/30 13:19:25;;;;;;;20.10;7.35;;;12.70;99.90;;;;;;4964141;28;90291;-43
2021/12/30 13:21:55;;;;;;;20.05;7.40;;;12.70;99.90;;;;;;4949322;28;90706;-45
2021/12/30 13:24:42;;;;;;;23.15;7.78;;;12.70;99.90;;;;;;4972832;28;89394;-44
2021/12/30 13:27:07;;;;;;;17.30;7.07;;;12.70;99.90;;;;;;4972825;28;88048;-42
2021/12/30 13:29:37;;;;;;;18.52;8.18;;;12.70;99.90;;;;;;4976693;28;88713;-40
2021/12/30 13:32:12;;;;;;;23.73;8.93;;;12.70;99.90;;;;;;4971389;28;90408;-42
2021/12/30 13:34:52;;;;;;;12.80;6.88;;;12.70;99.90;;;;;;4971044;28;89666;-39
2021/12/30 13:37:20;;;;;;;21.98;7.13;;;12.70;99.90;;;;;;4973101;28;87643;-42
2021/12/30 13:39:46;;;;;;;23.33;8.53;;;12.70;99.90;;;;;;4973231;28;91106;-41
2021/12/30 13:42:17;;;;;;;22.92;6.97;;;12.70;99.90;;;;;;4972444;28;89566;-43
2021/12/30 13:44:49;;;;;;;21.77;7.28;;;12.70;99.90;;;;;;4972099;28;89873;-41
2021/12/30 13:47:15;;;;;;;16.30;7.30;;;12.80;99.90;;;;;;4937974;28;88911;-41
2021/12/30 13:49:41;;;;;;;22.45;7.45;;;12.70;99.90;;;;;;4984287;28;88766;-44
2021/12/30 13:52:07;;;;;;;18.50;8.23;;;12.70;99.90;;;;;;4972281;28;89160;-45
2021/12/30 13:54:32;;;;;;;16.67;7.93;;;12.70;99.90;;;;;;4971373;28;89520;-42
2021/12/30 13:56:58;;;;;;;26.10;8.40;;;12.70;99.90;;;;;;4978922;28;88844;-41
2021/12/30 13:59:30;;;;;;;20.38;8.18;;;12.80;99.90;;;;;;4981732;28;90414;-39
2021/12/30 14:01:59;;;;;;;21.25;7.43;;;12.70;99.90;;;;;;4979364;28;90652;-43
2021/12/30 14:04:28;;;;;;;14.77;7.47;;;12.70;99.90;;;;;;4992113;28;89595;-39
2021/12/30 14:06:58;;;;;;;19.50;8.07;;;12.70;99.90;;;;;;4998968;28;87722;-44
2021/12/30 14:09:24;;;;;;;21.95;8.93;;;12.70;99.90;;;;;;5011854;28;88857;-43
2021/12/30 14:11:54;;;;;;;16.05;7.22;;;12.70;99.90;;;;;;4999305;28;91349;-43
2021/12/30 14:14:30;;;;;;;13.50;7.30;;;12.80;99.90;;;;;;4987552;28;90255;-43
2021/12/30 14:16:58;;;;;;;16.60;6.68;;;12.80;99.90;;;;;;4972299;28;88448;-43
2021/12/30 14:19:28;;;;;;;19.50;8.43;;;12.80;99.90;;;;;;4982555;28;90521;-42
2021/12/30 14:21:54;;;;;;;20.70;7.03;;;12.80;99.90;;;;;;4982543;28;91899;-43
2021/12/30 14:24:23;;;;;;;16.20;8.18;;;12.80;99.90;;;;;;4993429;28;89924;-43
2021/12/30 14:27:01;;;;;;;21.15;8.35;;;12.80;99.90;;;;;;4982240;28;87669;-40
2021/12/30 14:29:30;;;;;;;19.00;7.50;;;12.80;99.90;;;;;;4985889;28;88981;-45
2021/12/30 14:32:10;;;;;;;14.30;8.10;;;12.80;99.90;;;;;;4981879;28;89893;-44
2021/12/30 14:34:42;;;;;;;17.00;7.28;;;12.80;99.90;;;;;;4963883;28;88868;-44
2021/12/30 14:37:17;;;;;;;19.80;7.68;;;12.90;99.90;;;;;;4981375;28;89007;-39
2021/12/30 14:39:45;;;;;;;21.38;7.43;;;12.80;99.90;;;;;;4991265;28;90261;-46
2021/12/30 14:42:17;;;;;;;15.57;7.75;;;12.80;99.90;;;;;;4981753;28;89852;-41
2021/12/30 14:44:55;;;;;;;18.00;8.45;;;12.90;99.90;;;;;;4981811;28;89701;-41
2021/12/30 14:47:30;;;;;;;21.67;8.10;;;12.80;99.90;;;;;;4982644;28;89182;-40
2021/12/30 14:49:57;;;;;;;20.58;8.38;;;12.80;99.90;;;;;;4984781;28;90854;-42
2021/12/30 14:52:54;;;;;;;14.82;8.30;;;12.80;99.90;;;;;;4985329;28;89826;-44
2021/12/30 14:55:35;;;;;;;16.30;8.43;;;12.80;99.90;;;;;;4981901;28;88079;-41
2021/12/30 14:58:04;;;;;;;13.60;7.60;;;12.80;99.90;;;;;;4985642;28;87893;-40
2021/12/30 15:00:34;;;;;;;18.00;8.90;;;12.80;99.90;;;;;;4985982;28;89126;-40
2021/12/30 15:03:00;;;;;;;21.75;8.57;;;12.80;99.90;;;;;;4986507;28;90556;-44
2021/12/30 15:05:27;;;;;;;17.58;7.65;;;12.80;99.90;;;;;;4985962;28;91172;-44
2021/12/30 15:07:53;;;;;;;18.30;9.57;;;12.80;99.90;;;;;;4985519;28;88437;-40
2021/12/30 15:10:21;;;;;;;23.52;9.13;;;12.80;99.90;;;;;;4983052;28;90507;-44
2021/12/30 15:12:48;;;;;;;19.15;9.32;;;12.80;99.90;;;;;;4984989;28;89172;-44
2021/12/30 15:15:18;;;;;;;22.50;8.57;;;12.80;99.90;;;;;;4985585;28;90398;-41
2021/12/30 15:17:44;;;;;;;16.73;7.53;;;12.70;99.90;;;;;;4984909;28;88953;-41
2021/12/30 15:20:14;;;;;;;18.20;8.13;;;12.80;99.90;;;;;;4984846;28;90059;-44
2021/12/30 15:22:40;;;;;;;14.82;7.55;;;12.80;99.90;;;;;;4984785;28;90490;-43
2021/12/30 15:25:07;;;;;;;19.02;7.88;;;12.80;99.90;;;;;;4984864;28;89261;-41
2021/12/30 15:27:32;;;;;;;16.88;7.75;;;12.70;99.90;;;;;;4983991;28;89480;-42
2021/12/30 15:29:58;;;;;;;12.82;6.82;;;12.70;99.90;;;;;;4984516;28;89212;-43
2021/12/30 15:32:24;;;;;;;18.73;8.60;;;12.70;99.90;;;;;;4984141;28;89333;-42
2021/12/30 15:34:52;;;;;;;20.90;9.02;;;12.70;99.90;;;;;;4984472;28;89536;-44
2021/12/30 15:37:20;;;;;;;17.55;8.57;;;12.70;99.90;;;;;;4984434;28;88669;-44
2021/12/30 15:39:45;;;;;;;14.57;8.35;;;12.70;99.90;;;;;;4984380;28;89307;-41
2021/12/30 15:42:11;;;;;;;14.93;8.77;;;12.70;99.90;;;;;;4984648;28;89971;-45